sensor_id;sensor_type;location;lat;lon;timestamp;P1;durP1;ratioP1;P2;durP2;ratioP2
6406;SDS011;3236;51.022;6.818;2023-02-04T00:00:30;17.98;;;2.60;;
6406;SDS011;3236;51.022;6.818;2023-02-04T00:03:01;19.50;;;3.42;;
6406;SDS011;3236;51.022;6.818;2023-02-04T00:05:28;18.50;;;3.22;;
6406;SDS011;3236;51.022;6.818;2023-02-04T00:07:55;21.25;;;3.00;;
6406;SDS011;3236;51.022;6.818;2023-02-04T00:10:23;23.17;;;3.97;;
6406;SDS011;3236;51.022;6.818;2023-02-04T00:12:50;18.38;;;2.60;;
6406;SDS011;3236;51.022;6.818;2023-02-04T00:15:17;15.32;;;3.53;;
6406;SDS011;3236;51.022;6.818;2023-02-04T00:17:45;24.48;;;3.63;;
6406;SDS011;3236;51.022;6.818;2023-02-04T00:20:18;30.45;;;4.00;;
6406;SDS011;3236;51.022;6.818;2023-02-04T00:22:45;21.85;;;3.55;;
6406;SDS011;3236;51.022;6.818;2023-02-04T00:25:12;14.32;;;2.72;;
6406;SDS011;3236;51.022;6.818;2023-02-04T00:27:41;23.60;;;2.65;;
6406;SDS011;3236;51.022;6.818;2023-02-04T00:30:09;17.95;;;3.05;;
6406;SDS011;3236;51.022;6.818;2023-02-04T00:32:40;20.88;;;3.28;;
6406;SDS011;3236;51.022;6.818;2023-02-04T00:35:07;18.85;;;3.35;;
6406;SDS011;3236;51.022;6.818;2023-02-04T00:37:35;27.48;;;4.95;;
6406;SDS011;3236;51.022;6.818;2023-02-04T00:40:02;15.45;;;3.80;;
6406;SDS011;3236;51.022;6.818;2023-02-04T00:42:30;27.23;;;3.75;;
6406;SDS011;3236;51.022;6.818;2023-02-04T00:45:02;18.55;;;2.80;;
6406;SDS011;3236;51.022;6.818;2023-02-04T00:47:36;18.80;;;3.35;;
6406;SDS011;3236;51.022;6.818;2023-02-04T00:50:06;18.70;;;3.85;;
6406;SDS011;3236;51.022;6.818;2023-02-04T00:52:37;14.70;;;2.97;;
6406;SDS011;3236;51.022;6.818;2023-02-04T00:55:05;22.35;;;3.20;;
6406;SDS011;3236;51.022;6.818;2023-02-04T00:57:34;29.90;;;3.72;;
6406;SDS011;3236;51.022;6.818;2023-02-04T01:00:03;17.08;;;3.38;;
6406;SDS011;3236;51.022;6.818;2023-02-04T01:02:31;19.55;;;3.20;;
6406;SDS011;3236;51.022;6.818;2023-02-04T01:04:58;25.05;;;4.22;;
6406;SDS011;3236;51.022;6.818;2023-02-04T01:07:25;21.58;;;3.17;;
6406;SDS011;3236;51.022;6.818;2023-02-04T01:09:52;19.80;;;3.60;;
6406;SDS011;3236;51.022;6.818;2023-02-04T01:12:19;17.73;;;2.70;;
6406;SDS011;3236;51.022;6.818;2023-02-04T01:14:49;19.65;;;3.30;;
6406;SDS011;3236;51.022;6.818;2023-02-04T01:17:18;18.00;;;3.08;;
6406;SDS011;3236;51.022;6.818;2023-02-04T01:19:46;14.23;;;2.13;;
6406;SDS011;3236;51.022;6.818;2023-02-04T01:22:13;17.77;;;3.58;;
6406;SDS011;3236;51.022;6.818;2023-02-04T01:24:40;28.75;;;4.13;;
6406;SDS011;3236;51.022;6.818;2023-02-04T01:27:11;22.50;;;2.97;;
6406;SDS011;3236;51.022;6.818;2023-02-04T01:29:39;17.75;;;2.95;;
6406;SDS011;3236;51.022;6.818;2023-02-04T01:32:06;28.65;;;3.80;;
6406;SDS011;3236;51.022;6.818;2023-02-04T01:34:34;17.67;;;3.10;;
6406;SDS011;3236;51.022;6.818;2023-02-04T01:37:01;27.15;;;3.10;;
6406;SDS011;3236;51.022;6.818;2023-02-04T01:39:28;26.73;;;4.00;;
6406;SDS011;3236;51.022;6.818;2023-02-04T01:41:55;19.65;;;2.85;;
6406;SDS011;3236;51.022;6.818;2023-02-04T01:44:24;19.73;;;3.05;;
6406;SDS011;3236;51.022;6.818;2023-02-04T01:46:55;24.92;;;3.45;;
6406;SDS011;3236;51.022;6.818;2023-02-04T01:49:22;24.02;;;4.32;;
6406;SDS011;3236;51.022;6.818;2023-02-04T01:51:51;19.75;;;3.42;;
6406;SDS011;3236;51.022;6.818;2023-02-04T01:54:18;20.73;;;4.05;;
6406;SDS011;3236;51.022;6.818;2023-02-04T01:56:47;19.25;;;2.65;;
6406;SDS011;3236;51.022;6.818;2023-02-04T01:59:21;23.55;;;4.85;;
6406;SDS011;3236;51.022;6.818;2023-02-04T02:01:50;16.80;;;2.83;;
6406;SDS011;3236;51.022;6.818;2023-02-04T02:04:18;25.40;;;3.83;;
6406;SDS011;3236;51.022;6.818;2023-02-04T02:09:29;23.17;;;3.20;;
6406;SDS011;3236;51.022;6.818;2023-02-04T02:11:57;17.88;;;2.38;;
6406;SDS011;3236;51.022;6.818;2023-02-04T02:14:26;23.63;;;4.15;;
6406;SDS011;3236;51.022;6.818;2023-02-04T02:16:53;24.13;;;3.38;;
6406;SDS011;3236;51.022;6.818;2023-02-04T02:19:23;20.13;;;2.90;;
6406;SDS011;3236;51.022;6.818;2023-02-04T02:21:54;20.42;;;4.07;;
6406;SDS011;3236;51.022;6.818;2023-02-04T02:24:29;20.08;;;3.33;;
6406;SDS011;3236;51.022;6.818;2023-02-04T02:26:58;18.88;;;2.55;;
6406;SDS011;3236;51.022;6.818;2023-02-04T02:29:29;20.48;;;2.92;;
6406;SDS011;3236;51.022;6.818;2023-02-04T02:31:56;22.40;;;3.78;;
6406;SDS011;3236;51.022;6.818;2023-02-04T02:34:24;25.30;;;3.13;;
6406;SDS011;3236;51.022;6.818;2023-02-04T02:36:52;22.08;;;3.47;;
6406;SDS011;3236;51.022;6.818;2023-02-04T02:39:20;21.55;;;3.60;;
6406;SDS011;3236;51.022;6.818;2023-02-04T02:41:49;27.75;;;3.42;;
6406;SDS011;3236;51.022;6.818;2023-02-04T02:44:16;18.27;;;3.13;;
6406;SDS011;3236;51.022;6.818;2023-02-04T02:46:44;12.25;;;2.22;;
6406;SDS011;3236;51.022;6.818;2023-02-04T02:49:17;25.75;;;4.35;;
6406;SDS011;3236;51.022;6.818;2023-02-04T02:51:45;12.27;;;2.47;;
6406;SDS011;3236;51.022;6.818;2023-02-04T02:54:18;21.13;;;3.47;;
6406;SDS011;3236;51.022;6.818;2023-02-04T02:56:49;14.73;;;3.08;;
6406;SDS011;3236;51.022;6.818;2023-02-04T02:59:16;10.32;;;2.22;;
6406;SDS011;3236;51.022;6.818;2023-02-04T03:01:43;18.88;;;3.08;;
6406;SDS011;3236;51.022;6.818;2023-02-04T03:04:12;14.85;;;2.40;;
6406;SDS011;3236;51.022;6.818;2023-02-04T03:06:40;10.18;;;2.35;;
6406;SDS011;3236;51.022;6.818;2023-02-04T03:09:07;20.98;;;2.78;;
6406;SDS011;3236;51.022;6.818;2023-02-04T03:11:40;14.50;;;2.63;;
6406;SDS011;3236;51.022;6.818;2023-02-04T03:14:11;19.00;;;2.75;;
6406;SDS011;3236;51.022;6.818;2023-02-04T03:16:38;19.17;;;3.00;;
6406;SDS011;3236;51.022;6.818;2023-02-04T03:19:05;19.13;;;3.10;;
6406;SDS011;3236;51.022;6.818;2023-02-04T03:21:39;21.35;;;3.38;;
6406;SDS011;3236;51.022;6.818;2023-02-04T03:24:07;18.83;;;2.53;;
6406;SDS011;3236;51.022;6.818;2023-02-04T03:26:34;22.50;;;3.17;;
6406;SDS011;3236;51.022;6.818;2023-02-04T03:29:01;20.73;;;2.83;;
6406;SDS011;3236;51.022;6.818;2023-02-04T03:31:32;24.33;;;2.85;;
6406;SDS011;3236;51.022;6.818;2023-02-04T03:33:59;15.80;;;2.60;;
6406;SDS011;3236;51.022;6.818;2023-02-04T03:36:29;17.60;;;2.95;;
6406;SDS011;3236;51.022;6.818;2023-02-04T03:38:56;21.38;;;3.10;;
6406;SDS011;3236;51.022;6.818;2023-02-04T03:41:24;22.75;;;3.78;;
6406;SDS011;3236;51.022;6.818;2023-02-04T03:43:51;20.48;;;2.60;;
6406;SDS011;3236;51.022;6.818;2023-02-04T03:49:51;21.88;;;3.55;;
6406;SDS011;3236;51.022;6.818;2023-02-04T03:52:21;17.10;;;2.42;;
6406;SDS011;3236;51.022;6.818;2023-02-04T03:54:48;24.05;;;3.33;;
6406;SDS011;3236;51.022;6.818;2023-02-04T03:57:15;15.88;;;3.33;;
6406;SDS011;3236;51.022;6.818;2023-02-04T03:59:42;20.55;;;2.58;;
6406;SDS011;3236;51.022;6.818;2023-02-04T04:02:10;20.95;;;3.55;;
6406;SDS011;3236;51.022;6.818;2023-02-04T04:04:43;14.45;;;2.15;;
6406;SDS011;3236;51.022;6.818;2023-02-04T04:07:11;29.75;;;3.63;;
6406;SDS011;3236;51.022;6.818;2023-02-04T04:09:38;27.23;;;3.00;;
6406;SDS011;3236;51.022;6.818;2023-02-04T04:12:05;15.90;;;2.95;;
6406;SDS011;3236;51.022;6.818;2023-02-04T04:14:32;17.52;;;3.65;;
6406;SDS011;3236;51.022;6.818;2023-02-04T04:16:59;29.77;;;4.40;;
6406;SDS011;3236;51.022;6.818;2023-02-04T04:19:27;29.77;;;5.15;;
6406;SDS011;3236;51.022;6.818;2023-02-04T04:21:55;28.25;;;4.18;;
6406;SDS011;3236;51.022;6.818;2023-02-04T04:24:24;22.85;;;3.45;;
6406;SDS011;3236;51.022;6.818;2023-02-04T04:26:51;16.55;;;3.10;;
6406;SDS011;3236;51.022;6.818;2023-02-04T04:29:18;15.18;;;2.95;;
6406;SDS011;3236;51.022;6.818;2023-02-04T04:31:44;16.48;;;3.20;;
6406;SDS011;3236;51.022;6.818;2023-02-04T04:34:11;26.20;;;3.13;;
6406;SDS011;3236;51.022;6.818;2023-02-04T04:36:42;21.48;;;3.08;;
6406;SDS011;3236;51.022;6.818;2023-02-04T04:39:10;18.05;;;2.83;;
6406;SDS011;3236;51.022;6.818;2023-02-04T04:41:39;20.50;;;2.78;;
6406;SDS011;3236;51.022;6.818;2023-02-04T04:44:05;18.38;;;2.90;;
6406;SDS011;3236;51.022;6.818;2023-02-04T04:46:36;17.83;;;2.85;;
6406;SDS011;3236;51.022;6.818;2023-02-04T04:49:05;24.20;;;3.58;;
6406;SDS011;3236;51.022;6.818;2023-02-04T04:51:35;17.60;;;3.35;;
6406;SDS011;3236;51.022;6.818;2023-02-04T04:54:05;25.17;;;3.30;;
6406;SDS011;3236;51.022;6.818;2023-02-04T04:56:32;19.65;;;3.15;;
6406;SDS011;3236;51.022;6.818;2023-02-04T04:59:01;13.88;;;2.85;;
6406;SDS011;3236;51.022;6.818;2023-02-04T05:01:28;24.80;;;3.30;;
6406;SDS011;3236;51.022;6.818;2023-02-04T05:03:55;18.55;;;2.72;;
6406;SDS011;3236;51.022;6.818;2023-02-04T05:06:22;18.35;;;3.25;;
6406;SDS011;3236;51.022;6.818;2023-02-04T05:08:50;14.40;;;2.47;;
6406;SDS011;3236;51.022;6.818;2023-02-04T05:11:17;21.27;;;4.10;;
6406;SDS011;3236;51.022;6.818;2023-02-04T05:13:44;15.23;;;3.17;;
6406;SDS011;3236;51.022;6.818;2023-02-04T05:16:13;24.17;;;3.58;;
6406;SDS011;3236;51.022;6.818;2023-02-04T05:18:41;19.65;;;3.47;;
6406;SDS011;3236;51.022;6.818;2023-02-04T05:21:11;28.10;;;3.15;;
6406;SDS011;3236;51.022;6.818;2023-02-04T05:23:38;17.35;;;3.08;;
6406;SDS011;3236;51.022;6.818;2023-02-04T05:26:06;20.48;;;3.17;;
6406;SDS011;3236;51.022;6.818;2023-02-04T05:28:33;32.20;;;3.95;;
6406;SDS011;3236;51.022;6.818;2023-02-04T05:31:00;11.20;;;2.55;;
6406;SDS011;3236;51.022;6.818;2023-02-04T05:33:30;16.13;;;2.85;;
6406;SDS011;3236;51.022;6.818;2023-02-04T05:35:57;20.42;;;4.15;;
6406;SDS011;3236;51.022;6.818;2023-02-04T05:38:24;22.73;;;3.00;;
6406;SDS011;3236;51.022;6.818;2023-02-04T05:40:51;27.58;;;3.28;;
6406;SDS011;3236;51.022;6.818;2023-02-04T05:43:18;24.75;;;3.10;;
6406;SDS011;3236;51.022;6.818;2023-02-04T05:45:45;32.33;;;4.45;;
6406;SDS011;3236;51.022;6.818;2023-02-04T05:48:12;16.10;;;3.53;;
6406;SDS011;3236;51.022;6.818;2023-02-04T05:50:40;24.23;;;3.42;;
6406;SDS011;3236;51.022;6.818;2023-02-04T05:53:07;27.02;;;4.90;;
6406;SDS011;3236;51.022;6.818;2023-02-04T05:55:34;26.15;;;3.70;;
6406;SDS011;3236;51.022;6.818;2023-02-04T05:58:02;23.55;;;3.38;;
6406;SDS011;3236;51.022;6.818;2023-02-04T06:00:29;21.02;;;2.95;;
6406;SDS011;3236;51.022;6.818;2023-02-04T06:02:56;16.70;;;3.97;;
6406;SDS011;3236;51.022;6.818;2023-02-04T06:05:23;22.98;;;2.85;;
6406;SDS011;3236;51.022;6.818;2023-02-04T06:07:53;18.55;;;3.42;;
6406;SDS011;3236;51.022;6.818;2023-02-04T06:10:20;16.75;;;2.90;;
6406;SDS011;3236;51.022;6.818;2023-02-04T06:12:47;14.90;;;2.63;;
6406;SDS011;3236;51.022;6.818;2023-02-04T06:15:14;17.00;;;3.67;;
6406;SDS011;3236;51.022;6.818;2023-02-04T06:17:41;23.88;;;3.20;;
6406;SDS011;3236;51.022;6.818;2023-02-04T06:20:09;25.48;;;3.10;;
6406;SDS011;3236;51.022;6.818;2023-02-04T06:22:38;27.35;;;4.32;;
6406;SDS011;3236;51.022;6.818;2023-02-04T06:25:07;23.83;;;3.38;;
6406;SDS011;3236;51.022;6.818;2023-02-04T06:27:34;18.42;;;3.22;;
6406;SDS011;3236;51.022;6.818;2023-02-04T06:30:01;17.08;;;3.60;;
6406;SDS011;3236;51.022;6.818;2023-02-04T06:32:31;16.27;;;2.85;;
6406;SDS011;3236;51.022;6.818;2023-02-04T06:35:00;16.88;;;3.13;;
6406;SDS011;3236;51.022;6.818;2023-02-04T06:37:27;24.17;;;4.38;;
6406;SDS011;3236;51.022;6.818;2023-02-04T06:39:55;27.30;;;3.90;;
6406;SDS011;3236;51.022;6.818;2023-02-04T06:42:23;21.00;;;3.72;;
6406;SDS011;3236;51.022;6.818;2023-02-04T06:44:51;23.63;;;3.45;;
6406;SDS011;3236;51.022;6.818;2023-02-04T06:47:21;24.77;;;3.08;;
6406;SDS011;3236;51.022;6.818;2023-02-04T06:49:48;34.83;;;3.83;;
6406;SDS011;3236;51.022;6.818;2023-02-04T06:52:15;24.48;;;4.05;;
6406;SDS011;3236;51.022;6.818;2023-02-04T06:54:41;23.77;;;3.72;;
6406;SDS011;3236;51.022;6.818;2023-02-04T06:57:09;18.48;;;3.15;;
6406;SDS011;3236;51.022;6.818;2023-02-04T06:59:42;24.77;;;4.72;;
6406;SDS011;3236;51.022;6.818;2023-02-04T07:02:11;27.67;;;3.90;;
6406;SDS011;3236;51.022;6.818;2023-02-04T07:04:38;25.83;;;4.68;;
6406;SDS011;3236;51.022;6.818;2023-02-04T07:07:06;23.95;;;4.32;;
6406;SDS011;3236;51.022;6.818;2023-02-04T07:09:33;34.50;;;3.63;;
6406;SDS011;3236;51.022;6.818;2023-02-04T07:12:03;19.85;;;3.83;;
6406;SDS011;3236;51.022;6.818;2023-02-04T07:14:33;33.83;;;4.78;;
6406;SDS011;3236;51.022;6.818;2023-02-04T07:17:02;26.77;;;4.22;;
6406;SDS011;3236;51.022;6.818;2023-02-04T07:19:30;20.85;;;4.22;;
6406;SDS011;3236;51.022;6.818;2023-02-04T07:22:00;27.70;;;4.55;;
6406;SDS011;3236;51.022;6.818;2023-02-04T07:24:30;27.10;;;3.58;;
6406;SDS011;3236;51.022;6.818;2023-02-04T07:26:57;21.10;;;3.63;;
6406;SDS011;3236;51.022;6.818;2023-02-04T07:29:24;29.08;;;4.00;;
6406;SDS011;3236;51.022;6.818;2023-02-04T07:31:51;32.33;;;4.45;;
6406;SDS011;3236;51.022;6.818;2023-02-04T07:34:20;28.73;;;4.50;;
6406;SDS011;3236;51.022;6.818;2023-02-04T07:36:47;29.13;;;3.83;;
6406;SDS011;3236;51.022;6.818;2023-02-04T07:39:14;17.73;;;3.20;;
6406;SDS011;3236;51.022;6.818;2023-02-04T07:41:41;23.65;;;4.63;;
6406;SDS011;3236;51.022;6.818;2023-02-04T07:44:08;27.85;;;4.75;;
6406;SDS011;3236;51.022;6.818;2023-02-04T07:46:35;24.27;;;4.78;;
6406;SDS011;3236;51.022;6.818;2023-02-04T07:49:03;25.10;;;4.63;;
6406;SDS011;3236;51.022;6.818;2023-02-04T07:51:31;24.25;;;4.63;;
6406;SDS011;3236;51.022;6.818;2023-02-04T07:53:59;28.15;;;5.55;;
6406;SDS011;3236;51.022;6.818;2023-02-04T07:56:29;20.60;;;4.50;;
6406;SDS011;3236;51.022;6.818;2023-02-04T07:59:00;29.50;;;5.50;;
6406;SDS011;3236;51.022;6.818;2023-02-04T08:01:28;36.88;;;5.45;;
6406;SDS011;3236;51.022;6.818;2023-02-04T08:03:55;36.22;;;5.68;;
6406;SDS011;3236;51.022;6.818;2023-02-04T08:06:22;28.80;;;4.72;;
6406;SDS011;3236;51.022;6.818;2023-02-04T08:08:51;34.08;;;5.47;;
6406;SDS011;3236;51.022;6.818;2023-02-04T08:11:21;35.63;;;4.95;;
6406;SDS011;3236;51.022;6.818;2023-02-04T08:13:48;36.00;;;5.13;;
6406;SDS011;3236;51.022;6.818;2023-02-04T08:16:15;24.35;;;5.25;;
6406;SDS011;3236;51.022;6.818;2023-02-04T08:18:43;30.20;;;5.15;;
6406;SDS011;3236;51.022;6.818;2023-02-04T08:21:10;28.55;;;5.43;;
6406;SDS011;3236;51.022;6.818;2023-02-04T08:23:37;25.45;;;4.63;;
6406;SDS011;3236;51.022;6.818;2023-02-04T08:26:10;27.25;;;5.00;;
6406;SDS011;3236;51.022;6.818;2023-02-04T08:28:38;20.70;;;4.45;;
6406;SDS011;3236;51.022;6.818;2023-02-04T08:31:08;30.20;;;5.25;;
6406;SDS011;3236;51.022;6.818;2023-02-04T08:33:39;26.90;;;4.80;;
6406;SDS011;3236;51.022;6.818;2023-02-04T08:36:06;28.52;;;5.80;;
6406;SDS011;3236;51.022;6.818;2023-02-04T08:38:34;28.27;;;5.28;;
6406;SDS011;3236;51.022;6.818;2023-02-04T08:41:01;20.45;;;4.43;;
6406;SDS011;3236;51.022;6.818;2023-02-04T08:43:30;28.38;;;5.75;;
6406;SDS011;3236;51.022;6.818;2023-02-04T08:45:58;20.52;;;5.22;;
6406;SDS011;3236;51.022;6.818;2023-02-04T08:48:25;24.90;;;4.60;;
6406;SDS011;3236;51.022;6.818;2023-02-04T08:50:53;19.23;;;5.30;;
6406;SDS011;3236;51.022;6.818;2023-02-04T08:53:23;28.33;;;5.70;;
6406;SDS011;3236;51.022;6.818;2023-02-04T08:55:50;28.38;;;5.80;;
6406;SDS011;3236;51.022;6.818;2023-02-04T08:58:17;22.38;;;5.20;;
6406;SDS011;3236;51.022;6.818;2023-02-04T09:00:46;32.30;;;5.60;;
6406;SDS011;3236;51.022;6.818;2023-02-04T09:03:13;33.25;;;5.50;;
6406;SDS011;3236;51.022;6.818;2023-02-04T09:05:40;31.60;;;6.10;;
6406;SDS011;3236;51.022;6.818;2023-02-04T09:08:07;28.65;;;5.88;;
6406;SDS011;3236;51.022;6.818;2023-02-04T09:10:35;29.77;;;6.32;;
6406;SDS011;3236;51.022;6.818;2023-02-04T09:13:02;24.13;;;5.70;;
6406;SDS011;3236;51.022;6.818;2023-02-04T09:15:29;31.15;;;7.00;;
6406;SDS011;3236;51.022;6.818;2023-02-04T09:17:57;32.05;;;5.95;;
6406;SDS011;3236;51.022;6.818;2023-02-04T09:20:34;26.30;;;6.18;;
6406;SDS011;3236;51.022;6.818;2023-02-04T09:23:03;24.73;;;5.43;;
6406;SDS011;3236;51.022;6.818;2023-02-04T09:25:33;22.90;;;5.35;;
6406;SDS011;3236;51.022;6.818;2023-02-04T09:28:01;18.77;;;5.30;;
6406;SDS011;3236;51.022;6.818;2023-02-04T09:30:28;32.50;;;5.63;;
6406;SDS011;3236;51.022;6.818;2023-02-04T09:32:57;19.98;;;5.38;;
6406;SDS011;3236;51.022;6.818;2023-02-04T09:35:24;30.30;;;4.93;;
6406;SDS011;3236;51.022;6.818;2023-02-04T09:37:51;33.63;;;6.15;;
6406;SDS011;3236;51.022;6.818;2023-02-04T09:40:18;34.22;;;6.05;;
6406;SDS011;3236;51.022;6.818;2023-02-04T09:42:51;27.45;;;7.50;;
6406;SDS011;3236;51.022;6.818;2023-02-04T09:45:21;35.03;;;6.32;;
6406;SDS011;3236;51.022;6.818;2023-02-04T09:47:53;28.48;;;5.05;;
6406;SDS011;3236;51.022;6.818;2023-02-04T09:50:24;27.20;;;5.68;;
6406;SDS011;3236;51.022;6.818;2023-02-04T09:52:54;31.65;;;6.10;;
6406;SDS011;3236;51.022;6.818;2023-02-04T09:55:25;36.15;;;7.03;;
6406;SDS011;3236;51.022;6.818;2023-02-04T09:57:55;30.73;;;6.60;;
6406;SDS011;3236;51.022;6.818;2023-02-04T10:00:23;30.10;;;6.60;;
6406;SDS011;3236;51.022;6.818;2023-02-04T10:02:52;30.30;;;6.32;;
6406;SDS011;3236;51.022;6.818;2023-02-04T10:05:23;48.35;;;7.63;;
6406;SDS011;3236;51.022;6.818;2023-02-04T10:07:53;30.67;;;7.13;;
6406;SDS011;3236;51.022;6.818;2023-02-04T10:10:21;31.58;;;7.10;;
6406;SDS011;3236;51.022;6.818;2023-02-04T10:12:50;27.65;;;8.35;;
6406;SDS011;3236;51.022;6.818;2023-02-04T10:15:20;33.80;;;7.47;;
6406;SDS011;3236;51.022;6.818;2023-02-04T10:17:54;27.73;;;6.68;;
6406;SDS011;3236;51.022;6.818;2023-02-04T10:20:25;25.80;;;8.13;;
6406;SDS011;3236;51.022;6.818;2023-02-04T10:22:52;37.95;;;8.02;;
6406;SDS011;3236;51.022;6.818;2023-02-04T10:25:36;41.15;;;10.07;;
6406;SDS011;3236;51.022;6.818;2023-02-04T10:28:03;35.90;;;8.60;;
6406;SDS011;3236;51.022;6.818;2023-02-04T10:30:30;37.20;;;9.73;;
6406;SDS011;3236;51.022;6.818;2023-02-04T10:33:11;46.60;;;10.90;;
6406;SDS011;3236;51.022;6.818;2023-02-04T10:35:49;40.92;;;9.63;;
6406;SDS011;3236;51.022;6.818;2023-02-04T10:38:17;37.05;;;10.95;;
6406;SDS011;3236;51.022;6.818;2023-02-04T10:40:45;36.03;;;10.20;;
6406;SDS011;3236;51.022;6.818;2023-02-04T10:43:13;36.80;;;11.40;;
6406;SDS011;3236;51.022;6.818;2023-02-04T10:45:43;30.58;;;9.40;;
6406;SDS011;3236;51.022;6.818;2023-02-04T10:48:14;38.20;;;9.52;;
6406;SDS011;3236;51.022;6.818;2023-02-04T10:50:42;38.47;;;11.52;;
6406;SDS011;3236;51.022;6.818;2023-02-04T10:53:11;39.67;;;12.07;;
6406;SDS011;3236;51.022;6.818;2023-02-04T10:55:59;45.13;;;12.52;;
6406;SDS011;3236;51.022;6.818;2023-02-04T10:58:28;41.83;;;12.13;;
6406;SDS011;3236;51.022;6.818;2023-02-04T11:00:56;51.00;;;12.23;;
6406;SDS011;3236;51.022;6.818;2023-02-04T11:03:28;37.20;;;11.50;;
6406;SDS011;3236;51.022;6.818;2023-02-04T11:05:57;36.75;;;11.80;;
6406;SDS011;3236;51.022;6.818;2023-02-04T11:08:26;32.58;;;9.27;;
6406;SDS011;3236;51.022;6.818;2023-02-04T11:10:57;42.83;;;11.67;;
6406;SDS011;3236;51.022;6.818;2023-02-04T11:13:27;41.20;;;11.80;;
6406;SDS011;3236;51.022;6.818;2023-02-04T11:16:08;38.97;;;12.05;;
6406;SDS011;3236;51.022;6.818;2023-02-04T11:18:45;39.83;;;10.43;;
6406;SDS011;3236;51.022;6.818;2023-02-04T11:23:49;45.83;;;11.68;;
6406;SDS011;3236;51.022;6.818;2023-02-04T11:26:30;41.65;;;10.63;;
6406;SDS011;3236;51.022;6.818;2023-02-04T11:32:03;45.63;;;11.15;;
6406;SDS011;3236;51.022;6.818;2023-02-04T11:34:45;32.10;;;9.20;;
6406;SDS011;3236;51.022;6.818;2023-02-04T11:37:35;37.72;;;11.07;;
6406;SDS011;3236;51.022;6.818;2023-02-04T11:40:15;42.15;;;10.70;;
6406;SDS011;3236;51.022;6.818;2023-02-04T11:42:48;46.08;;;12.00;;
6406;SDS011;3236;51.022;6.818;2023-02-04T11:45:19;35.42;;;11.10;;
6406;SDS011;3236;51.022;6.818;2023-02-04T11:47:52;38.00;;;11.80;;
6406;SDS011;3236;51.022;6.818;2023-02-04T11:50:22;42.08;;;9.95;;
6406;SDS011;3236;51.022;6.818;2023-02-04T11:52:54;31.23;;;9.30;;
6406;SDS011;3236;51.022;6.818;2023-02-04T11:55:21;41.75;;;10.60;;
6406;SDS011;3236;51.022;6.818;2023-02-04T11:57:50;41.45;;;10.85;;
6406;SDS011;3236;51.022;6.818;2023-02-04T12:00:19;36.30;;;10.02;;
6406;SDS011;3236;51.022;6.818;2023-02-04T12:02:48;33.95;;;10.90;;
6406;SDS011;3236;51.022;6.818;2023-02-04T12:05:17;39.47;;;11.85;;
6406;SDS011;3236;51.022;6.818;2023-02-04T12:07:45;40.97;;;11.90;;
6406;SDS011;3236;51.022;6.818;2023-02-04T12:10:21;39.22;;;10.52;;
6406;SDS011;3236;51.022;6.818;2023-02-04T12:12:50;36.10;;;9.93;;
6406;SDS011;3236;51.022;6.818;2023-02-04T12:15:22;37.08;;;11.23;;
6406;SDS011;3236;51.022;6.818;2023-02-04T12:18:03;39.28;;;10.65;;
6406;SDS011;3236;51.022;6.818;2023-02-04T12:20:32;45.35;;;11.20;;
6406;SDS011;3236;51.022;6.818;2023-02-04T12:22:59;28.95;;;10.70;;
6406;SDS011;3236;51.022;6.818;2023-02-04T12:25:28;45.75;;;9.52;;
6406;SDS011;3236;51.022;6.818;2023-02-04T12:27:55;40.22;;;13.02;;
6406;SDS011;3236;51.022;6.818;2023-02-04T12:30:23;46.45;;;10.50;;
6406;SDS011;3236;51.022;6.818;2023-02-04T12:32:51;44.33;;;11.55;;
6406;SDS011;3236;51.022;6.818;2023-02-04T12:35:18;43.13;;;10.05;;
6406;SDS011;3236;51.022;6.818;2023-02-04T12:37:45;34.50;;;10.07;;
6406;SDS011;3236;51.022;6.818;2023-02-04T12:40:13;31.65;;;10.18;;
6406;SDS011;3236;51.022;6.818;2023-02-04T12:42:43;39.28;;;10.40;;
6406;SDS011;3236;51.022;6.818;2023-02-04T12:45:11;37.13;;;9.60;;
6406;SDS011;3236;51.022;6.818;2023-02-04T12:47:40;37.92;;;10.73;;
6406;SDS011;3236;51.022;6.818;2023-02-04T12:50:08;30.58;;;8.18;;
6406;SDS011;3236;51.022;6.818;2023-02-04T12:52:36;28.58;;;6.60;;
6406;SDS011;3236;51.022;6.818;2023-02-04T12:55:04;34.40;;;7.38;;
6406;SDS011;3236;51.022;6.818;2023-02-04T12:57:33;22.38;;;6.47;;
6406;SDS011;3236;51.022;6.818;2023-02-04T13:00:02;27.92;;;7.82;;
6406;SDS011;3236;51.022;6.818;2023-02-04T13:02:31;35.05;;;8.20;;
6406;SDS011;3236;51.022;6.818;2023-02-04T13:04:58;36.75;;;7.93;;
6406;SDS011;3236;51.022;6.818;2023-02-04T13:07:25;31.05;;;6.32;;
6406;SDS011;3236;51.022;6.818;2023-02-04T13:09:52;25.40;;;6.88;;
6406;SDS011;3236;51.022;6.818;2023-02-04T13:12:24;29.48;;;6.75;;
6406;SDS011;3236;51.022;6.818;2023-02-04T13:14:51;25.42;;;6.28;;
6406;SDS011;3236;51.022;6.818;2023-02-04T13:17:19;28.88;;;6.38;;
6406;SDS011;3236;51.022;6.818;2023-02-04T13:19:49;30.40;;;4.63;;
6406;SDS011;3236;51.022;6.818;2023-02-04T13:22:16;22.63;;;4.47;;
6406;SDS011;3236;51.022;6.818;2023-02-04T13:24:43;20.50;;;4.47;;
6406;SDS011;3236;51.022;6.818;2023-02-04T13:27:10;27.23;;;6.30;;
6406;SDS011;3236;51.022;6.818;2023-02-04T13:29:37;24.77;;;4.63;;
6406;SDS011;3236;51.022;6.818;2023-02-04T13:32:04;29.58;;;4.85;;
6406;SDS011;3236;51.022;6.818;2023-02-04T13:34:32;28.50;;;4.95;;
6406;SDS011;3236;51.022;6.818;2023-02-04T13:36:59;29.67;;;4.47;;
6406;SDS011;3236;51.022;6.818;2023-02-04T13:39:27;23.35;;;4.70;;
6406;SDS011;3236;51.022;6.818;2023-02-04T13:41:54;18.10;;;3.83;;
6406;SDS011;3236;51.022;6.818;2023-02-04T13:44:21;31.42;;;5.38;;
6406;SDS011;3236;51.022;6.818;2023-02-04T13:46:47;28.15;;;4.72;;
6406;SDS011;3236;51.022;6.818;2023-02-04T13:49:14;29.33;;;4.05;;
6406;SDS011;3236;51.022;6.818;2023-02-04T13:51:43;22.27;;;4.15;;
6406;SDS011;3236;51.022;6.818;2023-02-04T13:54:10;25.05;;;4.22;;
6406;SDS011;3236;51.022;6.818;2023-02-04T13:56:40;25.35;;;4.15;;
6406;SDS011;3236;51.022;6.818;2023-02-04T13:59:07;24.10;;;4.30;;
6406;SDS011;3236;51.022;6.818;2023-02-04T14:01:34;21.38;;;3.72;;
6406;SDS011;3236;51.022;6.818;2023-02-04T14:04:01;22.30;;;5.15;;
6406;SDS011;3236;51.022;6.818;2023-02-04T14:06:31;23.17;;;3.85;;
6406;SDS011;3236;51.022;6.818;2023-02-04T14:09:04;20.48;;;3.20;;
6406;SDS011;3236;51.022;6.818;2023-02-04T14:11:34;24.50;;;4.38;;
6406;SDS011;3236;51.022;6.818;2023-02-04T14:14:02;23.00;;;3.88;;
6406;SDS011;3236;51.022;6.818;2023-02-04T14:16:29;23.38;;;3.47;;
6406;SDS011;3236;51.022;6.818;2023-02-04T14:18:57;26.40;;;4.45;;
6406;SDS011;3236;51.022;6.818;2023-02-04T14:21:24;23.98;;;3.75;;
6406;SDS011;3236;51.022;6.818;2023-02-04T14:23:51;21.27;;;3.80;;
6406;SDS011;3236;51.022;6.818;2023-02-04T14:26:20;18.83;;;3.15;;
6406;SDS011;3236;51.022;6.818;2023-02-04T14:28:47;20.77;;;3.20;;
6406;SDS011;3236;51.022;6.818;2023-02-04T14:31:13;20.13;;;3.78;;
6406;SDS011;3236;51.022;6.818;2023-02-04T14:33:40;13.52;;;2.72;;
6406;SDS011;3236;51.022;6.818;2023-02-04T14:36:07;27.10;;;3.75;;
6406;SDS011;3236;51.022;6.818;2023-02-04T14:38:35;19.98;;;3.65;;
6406;SDS011;3236;51.022;6.818;2023-02-04T14:41:03;19.33;;;4.45;;
6406;SDS011;3236;51.022;6.818;2023-02-04T14:43:32;23.90;;;3.97;;
6406;SDS011;3236;51.022;6.818;2023-02-04T14:46:01;28.50;;;3.92;;
6406;SDS011;3236;51.022;6.818;2023-02-04T14:48:29;18.65;;;3.53;;
6406;SDS011;3236;51.022;6.818;2023-02-04T14:50:56;25.90;;;4.32;;
6406;SDS011;3236;51.022;6.818;2023-02-04T14:53:23;17.48;;;4.53;;
6406;SDS011;3236;51.022;6.818;2023-02-04T14:55:53;17.50;;;3.40;;
6406;SDS011;3236;51.022;6.818;2023-02-04T14:58:20;22.98;;;4.93;;
6406;SDS011;3236;51.022;6.818;2023-02-04T15:00:49;24.67;;;3.95;;
6406;SDS011;3236;51.022;6.818;2023-02-04T15:03:16;19.27;;;3.42;;
6406;SDS011;3236;51.022;6.818;2023-02-04T15:05:43;13.57;;;3.53;;
6406;SDS011;3236;51.022;6.818;2023-02-04T15:08:10;28.20;;;3.85;;
6406;SDS011;3236;51.022;6.818;2023-02-04T15:10:37;24.10;;;3.40;;
6406;SDS011;3236;51.022;6.818;2023-02-04T15:13:05;20.73;;;4.05;;
6406;SDS011;3236;51.022;6.818;2023-02-04T15:15:32;22.40;;;6.25;;
6406;SDS011;3236;51.022;6.818;2023-02-04T15:18:01;27.75;;;5.57;;
6406;SDS011;3236;51.022;6.818;2023-02-04T15:20:28;22.02;;;3.70;;